Time;durP1;ratioP1;P1;durP2;ratioP2;P2;SDS_P1;SDS_P2;PMS_P1;PMS_P2;Temp;Humidity;BMP_temperature;BMP_pressure;BME280_temperature;BME280_humidity;BME280_pressure;Samples;Min_cycle;Max_cycle;Signal;HPM_P1;HPM_P2
2023/06/18 00:00:55;;;;;;;4.18;3.70;;;;;;;25.09;60.82;100632.25;5016005;28;20025;-88
2023/06/18 00:03:20;;;;;;;;;;;;;;;25.15;60.60;100645.56;5033151;28;20108;-88
2023/06/18 00:05:46;;;;;;;5.00;3.65;;;;;;;25.06;60.78;100634.06;5015499;28;20078;-88
2023/06/18 00:08:11;;;;;;;;;;;;;;;25.15;60.57;100639.34;5015661;28;20030;-88
2023/06/18 00:10:37;;;;;;;4.03;3.60;;;;;;;24.96;60.70;100617.22;5033025;28;19916;-88
2023/06/18 00:13:02;;;;;;;;;;;;;;;25.14;60.55;100640.22;5032924;28;20412;-88
2023/06/18 00:15:28;;;;;;;3.70;3.40;;;;;;;24.96;60.90;100612.78;5028747;28;19919;-88
2023/06/18 00:17:53;;;;;;;;;;;;;;;25.13;60.58;100638.47;5027227;28;20534;-88
2023/06/18 00:20:19;;;;;;;4.53;3.55;;;;;;;25.11;60.76;100637.59;5032858;28;20458;-87
2023/06/18 00:22:48;;;;;;;;;;;;;;;25.11;60.64;100641.16;5038829;28;20021;-88
2023/06/18 00:25:14;;;;;;;5.45;3.70;;;;;;;25.04;60.60;100636.78;5019908;28;20084;-88
2023/06/18 00:27:40;;;;;;;3.78;3.20;;;;;;;25.08;60.29;100633.19;5031560;28;20025;-87
2023/06/18 00:30:07;;;;;;;5.15;3.85;;;;;;;25.01;60.56;100620.75;5015250;28;20033;-88
2023/06/18 00:32:33;;;;;;;3.80;3.50;;;;;;;25.06;60.38;100634.97;5032597;28;20032;-89
2023/06/18 00:35:00;;;;;;;4.15;3.53;;;;;;;24.92;60.22;100613.69;5032710;28;20128;-88
2023/06/18 00:37:27;;;;;;;4.55;3.42;;;;;;;25.06;60.42;100637.66;5030556;28;20022;-88
2023/06/18 00:39:54;;;;;;;4.13;3.53;;;;;;;24.98;60.43;100619.00;5032460;28;20466;-88
2023/06/18 00:42:20;;;;;;;4.60;3.47;;;;;;;25.07;60.61;100638.53;5032292;28;20056;-87
2023/06/18 00:44:46;;;;;;;;;;;;;;;25.06;60.75;100639.41;5015278;28;20061;-88
2023/06/18 00:47:12;;;;;;;5.38;3.72;;;;;;;25.06;60.74;100639.41;5032178;28;20399;-88
2023/06/18 00:49:44;;;;;;;4.10;3.35;;;;;;;24.90;60.83;100639.53;5039620;28;20099;-89
2023/06/18 00:52:13;;;;;;;4.13;3.70;;;;;;;25.01;60.84;100643.91;5036137;28;20164;-88
2023/06/18 00:54:40;;;;;;;4.03;3.50;;;;;;;24.99;60.66;100639.44;5031482;28;20030;-88
2023/06/18 00:57:08;;;;;;;4.00;3.58;;;;;;;24.99;60.73;100650.13;5009324;28;20025;-88
2023/06/18 00:59:37;;;;;;;4.25;3.70;;;;;;;25.08;60.70;100648.28;5008711;28;20032;-88
2023/06/18 01:02:03;;;;;;;3.95;3.38;;;;;;;25.06;60.44;100645.66;5020117;28;20033;-88
2023/06/18 01:04:35;;;;;;;3.47;3.17;;;;;;;25.01;60.77;100655.47;5019407;28;20045;-88
2023/06/18 01:07:02;;;;;;;4.28;3.30;;;;;;;25.06;60.61;100658.09;5032132;28;20112;-89
2023/06/18 01:09:29;;;;;;;4.30;3.38;;;;;;;25.04;61.05;100655.47;5032012;28;20044;-89
2023/06/18 01:11:55;;;;;;;4.05;3.35;;;;;;;25.05;61.14;100653.69;5014390;28;20032;-87
2023/06/18 01:14:25;;;;;;;;;;;;;;;25.07;60.80;100651.88;5014365;28;20029;-87
2023/06/18 01:16:53;;;;;;;4.63;3.50;;;;;;;24.91;60.97;100641.31;5014363;28;19913;-87
2023/06/18 01:19:35;;;;;;;4.72;3.63;;;;;;;25.01;61.32;100659.94;5013823;28;20021;-87
2023/06/18 01:22:11;;;;;;;4.45;3.30;;;;;;;24.99;61.33;100665.28;5030783;28;20117;-87
2023/06/18 01:24:40;;;;;;;4.32;3.92;;;;;;;24.96;61.55;100668.00;5011484;28;20040;-88
2023/06/18 01:27:08;;;;;;;4.80;3.65;;;;;;;24.85;61.42;100643.13;5013507;28;20029;-88
2023/06/18 01:29:39;;;;;;;6.05;3.40;;;;;;;25.00;61.33;100672.41;5031110;28;20120;-86
2023/06/18 01:32:05;;;;;;;4.32;3.42;;;;;;;24.84;61.54;100652.91;5030861;28;20022;-88
2023/06/18 01:34:30;;;;;;;;;;;;;;;24.99;61.60;100670.63;5013656;28;20567;-89
2023/06/18 01:37:03;;;;;;;4.30;3.30;;;;;;;24.95;61.46;100679.56;5029996;28;20016;-88
2023/06/18 01:39:36;;;;;;;4.40;3.70;;;;;;;24.97;61.54;100680.44;4996832;28;20033;-89
2023/06/18 01:42:16;;;;;;;5.78;3.67;;;;;;;24.90;61.66;100682.25;5018662;28;20044;-87
2023/06/18 01:44:57;;;;;;;4.20;3.75;;;;;;;24.93;61.50;100682.25;5036353;28;20032;-88
2023/06/18 01:47:26;;;;;;;4.72;3.78;;;;;;;24.94;61.74;100692.03;5013170;28;20499;-87
2023/06/18 01:49:54;;;;;;;5.57;3.70;;;;;;;24.80;61.72;100683.22;5029016;28;20025;-88
2023/06/18 01:52:21;;;;;;;4.05;3.33;;;;;;;24.90;61.77;100684.94;5013300;28;20043;-88
2023/06/18 01:54:47;;;;;;;5.88;3.90;;;;;;;24.90;61.77;100697.41;5012982;28;20439;-88
2023/06/18 01:57:18;;;;;;;4.22;3.58;;;;;;;24.92;61.85;100695.63;5013000;28;20032;-88
2023/06/18 01:59:43;;;;;;;4.70;3.88;;;;;;;24.92;61.87;100696.50;5012423;28;20041;-88
2023/06/18 02:02:09;;;;;;;;;;;;;;;24.95;61.58;100699.13;5023912;28;20035;-88
2023/06/18 02:04:35;;;;;;;5.45;3.60;;;;;;;24.89;61.89;100701.88;5009586;28;19918;-88
2023/06/18 02:07:01;;;;;;;;;;;;;;;24.90;61.63;100695.63;4993705;28;20168;-88
2023/06/18 02:09:27;;;;;;;5.15;3.35;;;;;;;24.85;61.79;100688.53;5011013;28;19910;-88
2023/06/18 02:11:52;;;;;;;;;;;;;;;24.92;61.64;100696.50;5020492;28;20495;-88
2023/06/18 02:14:18;;;;;;;4.13;3.58;;;;;;;24.88;61.89;100707.22;5014541;28;19913;-87
2023/06/18 02:16:44;;;;;;;;;;;;;;;24.89;61.55;100715.22;5012425;28;20030;-86
2023/06/18 02:19:10;;;;;;;3.97;3.40;;;;;;;24.83;61.99;100692.97;5010507;28;20343;-87
2023/06/18 02:21:37;;;;;;;;;;;;;;;24.89;61.70;100708.97;5013167;28;20030;-86
2023/06/18 02:24:02;;;;;;;3.87;3.40;;;;;;;24.77;61.66;100689.47;5010291;28;20380;-86
2023/06/18 02:26:28;;;;;;;;;;;;;;;24.89;61.57;100706.31;5013384;28;20033;-87
2023/06/18 02:28:53;;;;;;;3.90;3.50;;;;;;;24.81;61.64;100698.34;5010557;28;19909;-88
2023/06/18 02:31:19;;;;;;;;;;;;;;;24.85;61.53;100705.47;5012300;28;20359;-88
2023/06/18 02:33:45;;;;;;;5.88;3.63;;;;;;;24.79;61.65;100706.38;5009290;28;19920;-87
2023/06/18 02:36:10;;;;;;;;;;;;;;;24.84;61.99;100711.69;5005424;28;20412;-84
2023/06/18 02:38:37;;;;;;;4.15;3.33;;;;;;;24.79;61.92;100714.38;5011993;28;20295;-88
2023/06/18 02:41:03;;;;;;;3.65;3.30;;;;;;;24.75;62.00;100704.63;5019477;28;20036;-86
2023/06/18 02:43:31;;;;;;;;;;;;;;;24.86;61.70;100712.56;5019746;28;20026;-87
2023/06/18 02:45:57;;;;;;;4.57;3.17;;;;;;;24.60;62.01;100677.13;5011808;28;19960;-86
2023/06/18 02:48:24;;;;;;;5.00;3.40;;;;;;;24.82;62.10;100710.81;5006221;28;20030;-88
2023/06/18 02:50:49;;;;;;;5.10;3.50;;;;;;;24.80;61.76;100715.25;5013802;28;20412;-88
2023/06/18 02:53:15;;;;;;;;;;;;;;;24.85;61.68;100715.22;5013862;28;20477;-87
2023/06/18 02:55:41;;;;;;;4.20;3.30;;;;;;;24.62;61.94;100678.88;5014230;28;20299;-87
2023/06/18 02:58:15;;;;;;;;;;;;;;;24.77;62.03;100705.50;5013852;28;20591;-87
2023/06/18 03:00:41;;;;;;;5.38;3.22;;;;;;;24.75;62.12;100704.63;5008141;28;19913;-87
2023/06/18 03:03:06;;;;;;;;;;;;;;;24.76;61.81;100709.06;5023221;28;20591;-85
2023/06/18 03:05:32;;;;;;;3.72;3.40;;;;;;;24.75;61.95;100709.94;5051427;28;19917;-85
2023/06/18 03:07:57;;;;;;;;;;;;;;;24.77;61.80;100716.19;5036383;28;20037;-86
2023/06/18 03:10:23;;;;;;;6.60;3.00;;;;;;;24.74;61.91;100705.53;5011409;28;19913;-86
2023/06/18 03:12:49;;;;;;;;;;;;;;;24.76;62.00;100716.19;5032969;28;20029;-87
2023/06/18 03:15:14;;;;;;;5.07;3.65;;;;;;;24.72;61.93;100707.31;4998500;28;20487;-87
2023/06/18 03:17:40;;;;;;;;;;;;;;;24.74;61.79;100717.97;5004104;28;20056;-87
2023/06/18 03:20:07;;;;;;;3.30;3.00;;;;;;;24.72;61.80;100709.06;5017714;28;19919;-87
2023/06/18 03:22:33;;;;;;;4.13;3.30;;;;;;;24.58;61.84;100691.34;5034135;28;20075;-87
2023/06/18 03:25:00;;;;;;;4.45;3.47;;;;;;;24.63;61.99;100710.00;5033953;28;20029;-88
2023/06/18 03:27:25;;;;;;;6.82;3.45;;;;;;;24.65;62.09;100705.53;5016776;28;20022;-88
2023/06/18 03:29:51;;;;;;;;;;;;;;;24.70;62.16;100713.53;5017108;28;20498;-87
2023/06/18 03:32:18;;;;;;;3.55;3.25;;;;;;;24.68;61.89;100721.56;5015382;28;19946;-87
2023/06/18 03:34:48;;;;;;;4.28;3.25;;;;;;;24.64;61.89;100714.47;5030701;28;20030;-87
2023/06/18 03:37:16;;;;;;;4.30;3.60;;;;;;;24.51;61.89;100696.72;5034094;28;20044;-87
2023/06/18 03:39:42;;;;;;;4.63;3.40;;;;;;;24.65;62.13;100713.56;5016456;28;20029;-86
2023/06/18 03:42:08;;;;;;;3.50;3.20;;;;;;;24.68;61.97;100716.22;5016368;28;20033;-87
2023/06/18 03:44:33;;;;;;;;;;;;;;;24.71;62.05;100718.88;5034029;28;20075;-86
2023/06/18 03:46:59;;;;;;;5.50;3.53;;;;;;;24.65;62.23;100716.22;5033907;28;19948;-87
2023/06/18 03:49:24;;;;;;;;;;;;;;;24.66;61.91;100718.03;5016327;28;20052;-87
2023/06/18 03:51:50;;;;;;;5.57;3.42;;;;;;;24.61;62.03;100713.59;5029253;28;19982;-87
2023/06/18 03:54:15;;;;;;;;;;;;;;;24.66;61.94;100725.13;5033918;28;20029;-87
2023/06/18 03:56:41;;;;;;;4.93;3.50;;;;;;;24.63;61.88;100726.03;5033348;28;19918;-86
2023/06/18 03:59:07;;;;;;;;;;;;;;;24.65;61.93;100726.91;5033851;28;20477;-88
2023/06/18 04:01:33;;;;;;;5.88;3.60;;;;;;;24.63;62.25;100720.69;5022430;28;19913;-89
2023/06/18 04:03:59;;;;;;;4.85;3.42;;;;;;;24.57;62.36;100721.63;5033323;28;20085;-88
2023/06/18 04:06:24;;;;;;;;;;;;;;;24.65;62.03;100728.69;5033476;28;20536;-87
2023/06/18 04:08:50;;;;;;;4.90;3.17;;;;;;;24.60;62.19;100731.41;4992386;28;19924;-88
2023/06/18 04:11:15;;;;;;;;;;;;;;;24.62;62.10;100734.94;5030613;28;20044;-89
2023/06/18 04:13:41;;;;;;;4.80;3.78;;;;;;;24.58;62.12;100733.19;5026627;28;19913;-86
2023/06/18 04:16:06;;;;;;;;;;;;;;;24.61;62.21;100743.84;5026218;28;20032;-90
2023/06/18 04:18:33;;;;;;;5.72;3.85;;;;;;;24.49;62.10;100736.78;5008143;28;19913;-87
2023/06/18 04:21:01;;;;;;;7.10;4.03;;;;;;;24.43;62.35;100717.19;5007990;28;20709;-89
2023/06/18 04:23:27;;;;;;;4.57;3.67;;;;;;;24.52;62.40;100731.41;5025794;28;20029;-86
2023/06/18 04:25:53;;;;;;;5.07;3.45;;;;;;;24.39;62.27;100709.19;5023204;28;20032;-86
2023/06/18 04:28:20;;;;;;;;;;;;;;;24.59;62.14;100748.28;5010823;28;20029;-85
2023/06/18 04:30:45;;;;;;;6.82;3.40;;;;;;;24.53;62.31;100730.53;5011006;28;19978;-86
2023/06/18 04:33:11;;;;;;;;;;;;;;;24.52;62.14;100739.44;5014796;28;20030;-88
2023/06/18 04:35:36;;;;;;;4.05;3.47;;;;;;;24.50;62.12;100735.00;5026450;28;19921;-87
2023/06/18 04:38:02;;;;;;;;;;;;;;;24.51;62.41;100739.44;5030498;28;20068;-85
2023/06/18 04:40:28;;;;;;;4.53;3.40;;;;;;;24.41;62.63;100745.69;5023991;28;19917;-87
2023/06/18 04:42:53;;;;;;;;;;;;;;;24.45;62.25;100742.06;4986563;28;20029;-84
2023/06/18 04:45:19;;;;;;;8.68;3.60;;;;;;;24.44;62.24;100741.19;5028119;28;19909;-84
2023/06/18 04:47:46;;;;;;;6.68;3.70;;;;;;;24.41;62.55;100741.22;5029385;28;20167;-84
2023/06/18 04:50:11;;;;;;;;;;;;;;;24.46;62.31;100743.88;5026825;28;20117;-84
2023/06/18 04:52:37;;;;;;;6.45;3.78;;;;;;;24.38;62.58;100747.47;5027015;28;20007;-84
2023/06/18 04:55:04;;;;;;;;;;;;;;;24.36;62.57;100751.91;5026947;28;20048;-84
2023/06/18 04:57:30;;;;;;;;;;;;;;;24.44;62.27;100751.00;5025901;28;19981;-84
2023/06/18 04:59:55;;;;;;;4.72;3.63;;;;;;;24.41;62.53;100751.91;5011282;28;20022;-85
2023/06/18 05:02:21;;;;;;;;;;;;;;;24.45;62.34;100755.44;5025786;28;20068;-84
2023/06/18 05:04:47;;;;;;;4.50;3.80;;;;;;;24.37;62.61;100751.00;4996993;28;20490;-84
2023/06/18 05:07:12;;;;;;;;;;;;;;;24.44;62.29;100759.00;4997030;28;20115;-84
2023/06/18 05:09:40;;;;;;;5.03;3.92;;;;;;;24.46;62.32;100754.56;4997451;28;19924;-85
2023/06/18 05:12:09;;;;;;;5.97;3.63;;;;;;;24.45;62.37;100761.69;4999660;28;20029;-85
2023/06/18 05:14:35;;;;;;;5.05;3.90;;;;;;;24.46;62.35;100759.88;5004280;28;20028;-86
2023/06/18 05:17:01;;;;;;;;;;;;;;;24.46;62.31;100758.09;5006407;28;20497;-86
2023/06/18 05:19:26;;;;;;;6.10;3.67;;;;;;;24.37;62.14;100748.34;4998355;28;19920;-86
2023/06/18 05:21:52;;;;;;;;;;;;;;;24.50;62.36;100767.03;5007207;28;20033;-86
2023/06/18 05:24:17;;;;;;;6.00;4.10;;;;;;;24.33;62.27;100746.56;5007686;28;19906;-85
2023/06/18 05:26:43;;;;;;;;;;;;;;;24.46;62.34;100767.91;5003390;28;20030;-87
2023/06/18 05:29:09;;;;;;;5.50;3.60;;;;;;;24.36;62.34;100759.94;5002315;28;19913;-84
2023/06/18 05:31:34;;;;;;;;;;;;;;;24.43;62.50;100778.59;5006499;28;20421;-87
2023/06/18 05:34:00;;;;;;;6.40;4.22;;;;;;;24.20;62.41;100747.50;5004667;28;20384;-89
2023/06/18 05:36:25;;;;;;;;;;;;;;;24.42;62.52;100795.50;5006517;28;20141;-90
2023/06/18 05:38:58;;;;;;;5.43;4.38;;;;;;;24.39;62.44;100789.25;5003061;28;19913;-89
2023/06/18 05:41:29;;;;;;;5.88;4.30;;;;;;;24.43;62.33;100800.84;5002889;28;20060;-88
2023/06/18 05:43:54;;;;;;;4.50;3.97;;;;;;;24.24;62.32;100761.75;5007446;28;20030;-88
2023/06/18 05:46:20;;;;;;;;;;;;;;;24.44;62.29;100802.59;5002517;28;20092;-86
2023/06/18 05:48:45;;;;;;;7.35;3.97;;;;;;;24.43;62.14;100805.28;5005623;28;19917;-87
2023/06/18 05:51:11;;;;;;;;;;;;;;;24.42;62.58;100792.81;5001169;28;20026;-85
2023/06/18 05:53:36;;;;;;;6.95;4.47;;;;;;;24.18;62.20;100763.50;5004935;28;19951;-86
2023/06/18 05:56:04;;;;;;;;;;;;;;;24.42;62.45;100796.38;4997390;28;20030;-85
2023/06/18 05:58:29;;;;;;;5.55;4.22;;;;;;;24.19;62.40;100748.38;4986333;28;19917;-86
2023/06/18 06:00:56;;;;;;;;;;;;;;;24.51;62.34;100796.41;5003054;28;20037;-86
2023/06/18 06:03:21;;;;;;;5.65;4.10;;;;;;;24.14;62.23;100747.53;5002365;28;20303;-86
2023/06/18 06:05:47;;;;;;;;;;;;;;;24.50;62.54;100801.72;5001342;28;20535;-86
2023/06/18 06:08:14;;;;;;;8.05;4.78;;;;;;;24.02;62.29;100723.53;5024438;28;20415;-87
2023/06/18 06:10:40;;;;;;;7.38;4.75;;;;;;;24.43;62.49;100794.63;5018967;28;20115;-84
2023/06/18 06:13:06;;;;;;;;;;;;;;;24.43;63.20;100799.97;5007072;28;20034;-85
2023/06/18 06:15:32;;;;;;;9.73;6.05;;;;;;;24.25;62.93;100755.50;5025177;28;19917;-85
2023/06/18 06:17:57;;;;;;;;;;;;;;;24.47;63.44;100802.59;5006211;28;20029;-85
2023/06/18 06:20:25;;;;;;;9.45;5.88;;;;;;;24.45;63.95;100799.03;5026258;28;20016;-87
2023/06/18 06:22:51;;;;;;;7.50;5.68;;;;;;;24.06;64.18;100733.31;5009644;28;20152;-86
2023/06/18 06:25:16;;;;;;;;;;;;;;;24.49;63.76;100803.53;5023373;28;20108;-85
2023/06/18 06:27:43;;;;;;;8.60;5.55;;;;;;;24.43;63.39;100800.84;5028889;28;20003;-83
2023/06/18 06:30:09;;;;;;;9.15;5.65;;;;;;;24.36;63.15;100797.28;4994276;28;20428;-84
2023/06/18 06:32:35;;;;;;;11.35;5.75;;;;;;;24.33;63.02;100785.72;5034891;28;20037;-85
2023/06/18 06:35:04;;;;;;;9.90;5.40;;;;;;;24.20;62.86;100763.53;5009528;28;20549;-84
2023/06/18 06:37:32;;;;;;;8.65;5.55;;;;;;;24.45;62.72;100801.72;5011356;28;20045;-84
2023/06/18 06:39:58;;;;;;;7.57;5.25;;;;;;;24.54;62.54;100820.41;5013096;28;20175;-85
2023/06/18 06:42:23;;;;;;;;;;;;;;;24.56;62.12;100813.28;5008361;28;20131;-86
2023/06/18 06:44:49;;;;;;;8.60;5.30;;;;;;;24.41;62.31;100793.72;5026246;28;19912;-85
2023/06/18 06:47:15;;;;;;;;;;;;;;;24.59;61.80;100815.03;5030066;28;20022;-84
2023/06/18 06:49:41;;;;;;;8.10;5.10;;;;;;;24.53;61.84;100802.63;5029802;28;19929;-86
2023/06/18 06:52:06;;;;;;;;;;;;;;;24.62;61.53;100811.47;5015460;28;20033;-87
2023/06/18 06:54:32;;;;;;;6.30;5.07;;;;;;;24.49;61.60;100791.94;5011006;28;19948;-86
2023/06/18 06:56:57;;;;;;;;;;;;;;;24.62;61.39;100811.47;5010692;28;20061;-85
2023/06/18 06:59:23;;;;;;;7.88;5.15;;;;;;;24.62;61.20;100819.47;5030662;28;19979;-84
2023/06/18 07:01:48;;;;;;;;;;;;;;;24.62;61.36;100819.47;5035117;28;20037;-86
2023/06/18 07:04:15;;;;;;;7.65;4.85;;;;;;;24.36;61.17;100775.03;5014466;28;19923;-88
2023/06/18 07:06:40;;;;;;;7.03;5.03;;;;;;;24.25;60.81;100755.50;5026575;28;20048;-86
2023/06/18 07:09:06;;;;;;;;;;;;;;;24.67;60.93;100828.38;5036329;28;20025;-87
2023/06/18 07:11:33;;;;;;;6.85;5.00;;;;;;;24.46;60.76;100783.91;4998949;28;19908;-86
2023/06/18 07:13:59;;;;;;;5.57;4.40;;;;;;;24.51;60.46;100796.41;5031578;28;20037;-86
2023/06/18 07:16:25;;;;;;;5.72;5.03;;;;;;;24.68;60.45;100831.06;5014730;28;20476;-85
2023/06/18 07:18:51;;;;;;;;;;;;;;;24.69;60.69;100827.47;5013329;28;20127;-84
2023/06/18 07:21:17;;;;;;;6.10;5.20;;;;;;;24.72;60.51;100834.59;5029961;28;19919;-85
2023/06/18 07:23:43;;;;;;;7.70;5.15;;;;;;;24.68;60.24;100822.13;5014546;28;20022;-85
2023/06/18 07:26:09;;;;;;;6.32;4.57;;;;;;;24.59;60.45;100809.72;5039645;28;20025;-85
2023/06/18 07:28:35;;;;;;;;;;;;;;;24.75;60.10;100831.94;5034672;28;20122;-85
2023/06/18 07:31:01;;;;;;;6.40;4.55;;;;;;;24.75;60.05;100835.47;5031805;28;19948;-84
2023/06/18 07:33:26;;;;;;;;;;;;;;;24.76;60.06;100837.28;5014835;28;20104;-84
2023/06/18 07:35:52;;;;;;;6.53;4.88;;;;;;;24.75;60.12;100843.50;5031028;28;20003;-85
2023/06/18 07:38:17;;;;;;;;;;;;;;;24.76;60.22;100839.94;5014642;28;20025;-84
2023/06/18 07:40:43;;;;;;;7.53;4.30;;;;;;;24.70;59.94;100828.34;5032337;28;19913;-84
2023/06/18 07:43:09;;;;;;;;;;;;;;;24.79;59.96;100831.03;5012643;28;20040;-83
2023/06/18 07:45:35;;;;;;;5.15;4.63;;;;;;;24.78;59.70;100831.91;5033308;28;19913;-85
2023/06/18 07:48:01;;;;;;;8.95;5.22;;;;;;;24.82;59.94;100838.13;5028682;28;20087;-86
2023/06/18 07:50:27;;;;;;;;;;;;;;;24.83;59.71;100837.22;5006102;28;20033;-84
2023/06/18 07:52:52;;;;;;;7.22;4.80;;;;;;;24.73;59.35;100825.69;5005942;28;19952;-86
2023/06/18 07:55:18;;;;;;;;;;;;;;;24.86;59.31;100847.91;5028206;28;20108;-86
2023/06/18 07:57:43;;;;;;;5.95;4.40;;;;;;;24.82;59.46;100838.13;5022165;28;20396;-85
2023/06/18 08:00:10;;;;;;;;;;;;;;;24.86;59.56;100850.59;5025216;28;20568;-83
2023/06/18 08:02:35;;;;;;;5.97;4.75;;;;;;;24.83;59.38;100842.56;5020323;28;19913;-84
2023/06/18 08:05:01;;;;;;;;;;;;;;;24.88;59.10;100849.69;5009819;28;20433;-85
2023/06/18 08:07:27;;;;;;;6.00;4.70;;;;;;;24.55;59.10;100790.16;5022832;28;20411;-84
2023/06/18 08:09:52;;;;;;;;;;;;;;;24.87;59.32;100849.66;5032296;28;20033;-85
2023/06/18 08:12:18;;;;;;;6.25;4.85;;;;;;;24.71;59.44;100816.81;5029512;28;19951;-86
2023/06/18 08:14:46;;;;;;;;;;;;;;;24.89;59.20;100855.91;5014932;28;20044;-85
2023/06/18 08:17:16;;;;;;;6.53;4.65;;;;;;;24.91;59.13;100860.38;5027373;28;19920;-84
2023/06/18 08:19:45;;;;;;;6.90;4.68;;;;;;;24.79;58.88;100831.91;5007130;28;20669;-85
2023/06/18 08:22:15;;;;;;;7.07;4.95;;;;;;;24.92;58.83;100845.22;5027204;28;20049;-83
2023/06/18 08:24:41;;;;;;;5.13;4.57;;;;;;;24.54;58.87;100776.81;5023995;28;20520;-84
2023/06/18 08:27:07;;;;;;;;;;;;;;;24.98;59.22;100858.56;4987421;28;20485;-84
2023/06/18 08:29:33;;;;;;;5.95;4.25;;;;;;;24.79;58.79;100826.56;5028237;28;19988;-82
2023/06/18 08:32:04;;;;;;;;;;;;;;;24.99;58.50;100855.84;5005091;28;20117;-84
2023/06/18 08:34:42;;;;;;;7.07;4.50;;;;;;;24.77;58.84;100824.78;5028316;28;19913;-83
2023/06/18 08:37:14;;;;;;;5.00;4.50;;;;;;;25.01;58.45;100861.19;5003071;28;20168;-84
2023/06/18 08:39:40;;;;;;;5.60;4.43;;;;;;;24.69;58.50;100805.25;4994748;28;20024;-84
2023/06/18 08:42:06;;;;;;;;;;;;;;;25.04;58.47;100857.63;5028978;28;20025;-85
2023/06/18 08:44:37;;;;;;;6.63;4.53;;;;;;;24.88;58.61;100841.66;5009499;28;19913;-85
2023/06/18 08:47:24;;;;;;;5.13;4.63;;;;;;;25.07;58.03;100863.84;5029481;28;20030;-86
2023/06/18 08:49:51;;;;;;;5.97;4.50;;;;;;;24.87;58.34;100813.19;5013494;28;20025;-86
2023/06/18 08:52:20;;;;;;;6.95;4.75;;;;;;;24.99;58.22;100842.50;5011544;28;20558;-85
2023/06/18 08:54:51;;;;;;;5.70;4.30;;;;;;;25.10;57.98;100863.81;5012317;28;20504;-85
2023/06/18 08:57:48;;;;;;;6.35;4.63;;;;;;;25.14;57.98;100862.91;5028800;28;20063;-85
2023/06/18 09:00:22;;;;;;;5.63;4.63;;;;;;;25.11;58.18;100862.94;5007794;28;20734;-84
2023/06/18 09:02:48;;;;;;;5.43;4.72;;;;;;;25.14;57.84;100862.91;5008058;28;20156;-85
2023/06/18 09:05:13;;;;;;;;;;;;;;;25.16;57.69;100858.47;5028285;28;20526;-84
2023/06/18 09:07:39;;;;;;;5.85;4.47;;;;;;;25.10;57.74;100844.25;5008937;28;19909;-82
2023/06/18 09:10:05;;;;;;;;;;;;;;;25.16;57.78;100863.81;5026283;28;20124;-85
2023/06/18 09:12:31;;;;;;;5.68;4.90;;;;;;;24.90;57.61;100817.63;4996617;28;19947;-85
2023/06/18 09:14:57;;;;;;;;;;;;;;;25.18;57.62;100855.78;4990360;28;20124;-85
2023/06/18 09:17:23;;;;;;;5.38;4.55;;;;;;;25.08;57.57;100835.34;5011205;28;19909;-85
2023/06/18 09:19:49;;;;;;;6.35;4.82;;;;;;;25.19;57.81;100861.13;5012497;28;20040;-83
2023/06/18 09:22:16;;;;;;;;;;;;;;;25.21;57.64;100855.81;5027995;28;20057;-84
2023/06/18 09:24:42;;;;;;;7.30;4.75;;;;;;;24.71;57.57;100772.28;5012681;28;19908;-84
2023/06/18 09:27:09;;;;;;;;;;;;;;;25.21;57.78;100853.16;5014366;28;20041;-87
2023/06/18 09:29:36;;;;;;;5.18;4.15;;;;;;;25.24;57.30;100854.91;4996648;28;20470;-85
2023/06/18 09:32:07;;;;;;;5.15;4.50;;;;;;;25.25;57.41;100857.59;5011866;28;20513;-85
2023/06/18 09:34:33;;;;;;;7.65;4.82;;;;;;;25.12;57.64;100834.44;5009535;28;20028;-85
2023/06/18 09:36:58;;;;;;;;;;;;;;;25.26;57.37;100850.44;4988162;28;20590;-85
2023/06/18 09:39:25;;;;;;;6.90;4.70;;;;;;;25.05;57.29;100817.53;5004451;28;20000;-86
2023/06/18 09:41:55;;;;;;;6.97;4.63;;;;;;;25.29;57.14;100861.09;5004124;28;20083;-85
2023/06/18 09:44:22;;;;;;;5.00;4.38;;;;;;;25.27;57.34;100839.72;5009123;28;20025;-87
2023/06/18 09:46:50;;;;;;;6.75;4.50;;;;;;;25.26;57.04;100839.75;5010879;28;20029;-86
2023/06/18 09:49:17;;;;;;;6.60;4.95;;;;;;;25.34;57.23;100848.63;5015874;28;20028;-84
2023/06/18 09:51:43;;;;;;;6.15;4.47;;;;;;;25.12;56.85;100805.91;5032990;28;20031;-87
2023/06/18 09:54:09;;;;;;;7.30;5.10;;;;;;;25.37;57.38;100856.63;5010646;28;20087;-86
2023/06/18 09:56:37;;;;;;;5.45;4.60;;;;;;;25.36;57.23;100853.06;5026343;28;20033;-86
2023/06/18 09:59:03;;;;;;;7.40;5.50;;;;;;;25.25;56.93;100822.84;5003768;28;20446;-86
2023/06/18 10:01:43;;;;;;;5.63;4.85;;;;;;;25.38;57.14;100839.69;5028306;28;20034;-86
2023/06/18 10:04:09;;;;;;;6.32;5.07;;;;;;;25.27;56.78;100815.66;4993551;28;20049;-84
2023/06/18 10:06:34;;;;;;;;;;;;;;;25.44;56.55;100838.75;5004585;28;20485;-85
2023/06/18 10:09:00;;;;;;;7.00;4.82;;;;;;;25.45;56.80;100836.06;4988774;28;20342;-84
2023/06/18 10:11:25;;;;;;;;;;;;;;;25.45;56.67;100833.41;5008591;28;20069;-84
2023/06/18 10:13:58;;;;;;;7.63;4.88;;;;;;;25.45;56.67;100836.06;5008152;28;19917;-85
2023/06/18 10:16:26;;;;;;;5.88;4.47;;;;;;;25.45;56.71;100829.84;5003062;28;20034;-83
2023/06/18 10:18:56;;;;;;;7.28;4.68;;;;;;;25.50;56.30;100834.25;5010272;28;20135;-85
2023/06/18 10:21:23;;;;;;;12.02;5.75;;;;;;;25.62;56.90;100827.94;5003767;28;20030;-85
2023/06/18 10:23:54;;;;;;;7.35;4.93;;;;;;;25.44;56.24;100796.84;4991036;28;20034;-82
2023/06/18 10:26:20;;;;;;;7.93;5.10;;;;;;;25.54;56.46;100811.06;5009277;28;20022;-84
2023/06/18 10:28:47;;;;;;;7.07;4.70;;;;;;;25.57;56.32;100803.91;5004829;28;20042;-84
2023/06/18 10:31:13;;;;;;;7.18;5.07;;;;;;;25.59;55.95;100814.59;5006499;28;20033;-84
2023/06/18 10:33:39;;;;;;;;;;;;;;;25.60;56.24;100803.00;5005518;28;20117;-84
2023/06/18 10:36:05;;;;;;;5.78;4.93;;;;;;;25.59;56.41;100809.25;5006817;28;19967;-84
2023/06/18 10:38:31;;;;;;;7.97;5.15;;;;;;;25.54;56.07;100785.19;5005976;28;20076;-84
2023/06/18 10:41:13;;;;;;;5.85;4.72;;;;;;;25.62;56.16;100795.84;4993298;28;20030;-84
2023/06/18 10:43:42;;;;;;;6.45;4.82;;;;;;;25.57;55.94;100787.88;5006400;28;20038;-84
2023/06/18 10:46:13;;;;;;;5.25;4.40;;;;;;;25.62;56.11;100793.16;5006640;28;20026;-84
2023/06/18 10:48:39;;;;;;;6.20;4.43;;;;;;;25.66;55.64;100794.03;5000671;28;20125;-85
2023/06/18 10:51:12;;;;;;;;;;;;;;;25.68;55.61;100789.56;5006066;28;20600;-83
2023/06/18 10:53:38;;;;;;;5.97;4.50;;;;;;;25.70;55.90;100799.34;5010902;28;19979;-84
2023/06/18 10:56:03;;;;;;;;;;;;;;;25.70;55.46;100790.44;5001022;28;20042;-82
2023/06/18 10:58:33;;;;;;;5.47;4.50;;;;;;;25.72;55.80;100791.31;5008194;28;20427;-84
2023/06/18 11:00:59;;;;;;;6.72;4.70;;;;;;;25.62;55.65;100779.78;5000631;28;20038;-85
2023/06/18 11:03:33;;;;;;;5.55;4.47;;;;;;;25.74;55.79;100790.41;5006093;28;20036;-84
2023/06/18 11:06:01;;;;;;;6.20;4.10;;;;;;;25.75;55.57;100785.94;5027479;28;20029;-85
2023/06/18 11:08:37;;;;;;;6.20;4.30;;;;;;;25.75;55.49;100785.94;5008780;28;20025;-84
2023/06/18 11:11:07;;;;;;;6.78;4.75;;;;;;;25.79;55.31;100790.34;5024316;28;20483;-85
2023/06/18 11:13:37;;;;;;;5.13;4.55;;;;;;;25.80;55.24;100787.69;4995311;28;20033;-85
2023/06/18 11:16:06;;;;;;;5.07;4.35;;;;;;;25.83;55.45;100791.22;5030769;28;20034;-85
2023/06/18 11:18:33;;;;;;;5.45;4.63;;;;;;;25.74;55.13;100773.47;5024823;28;20475;-85
2023/06/18 11:21:02;;;;;;;7.88;4.50;;;;;;;25.82;55.23;100786.75;5040528;28;20512;-85
2023/06/18 11:23:28;;;;;;;5.35;4.82;;;;;;;25.83;55.25;100793.91;5041111;28;20072;-85
2023/06/18 11:25:54;;;;;;;6.75;4.15;;;;;;;25.77;55.32;100786.81;5026595;28;20029;-86
2023/06/18 11:28:20;;;;;;;;;;;;;;;25.86;55.16;100800.09;5033821;28;20389;-86
2023/06/18 11:30:51;;;;;;;6.30;4.40;;;;;;;25.87;54.96;100803.69;5009544;28;19909;-86
2023/06/18 11:33:28;;;;;;;5.97;4.38;;;;;;;25.86;55.02;100807.25;5024323;28;20104;-85
2023/06/18 11:36:05;;;;;;;6.80;4.70;;;;;;;25.82;55.24;100792.13;5021142;28;20051;-86
2023/06/18 11:38:31;;;;;;;5.47;4.30;;;;;;;25.81;55.18;100788.56;5019143;28;20025;-85
2023/06/18 11:40:57;;;;;;;5.65;4.65;;;;;;;25.71;55.06;100769.00;5032061;28;20025;-83
2023/06/18 11:43:22;;;;;;;;;;;;;;;25.90;54.94;100804.56;5015252;28;20408;-85